Southam, North Dakota
Current Conditions -  °F | °C
As of 9:35 AM on Thursday 30 Oct 2014 (Local Time) from KDVL Reporting Station
Overcast Overcast  
Wind Chill: 23°   Ceiling: 1300
Heat Index: 34°   Visibility: 10mi
Dew Point: 21°   Wind: 18mph
Humidity: 60%   Direction: 360°N
Pressure: 30.26"   Gusts: 23mph
Location:  48.0187°N, 98.6029°W
Report Text: KDVL 301435Z AUTO 36016G20KT 10SM OVC013 01/M06 A3026 RMK AO1
Loading
Personal Weather Stations






























Interactive Weather Map
Tropical Storm Tracking
New forecast layout! Learn more

10-Day Weather Forecast

Advertisements
Track Severe Weather on mobile